PWSweather.com
Personal Weather Stations
Station Observations
SANDHURSTWX
SandhurstGB

SandhurstGB

Lat: 51.3522, Lon: -0.7739

Elevation: 272.3

Station Type: Davis VP2

www.sandhurstweather.org.uk

High Low Average
Temperature 67.1°F19.5°C 58.2°F14.6°C 62.2°F16.8°C
Dew Point 58.6°F14.8°C 52.5°F11.4°C 55.3°F12.9°C
Winds 5.8 mph 9.3 kmh Calm Calm 2.0 mph SW3.2 kmh SW
Wind Gusts 10.4 mph16.7 kmh 1.2 mph1.9 kmh 4.0 mph6.4 kmh
Humidity 86% 69% 78%
Pressure 30.24 in1024.0 mb 30.09 in1019.0 mb -
Precipitation 0.00 in0.0 mm - -
Hour Temp Dew Point Humidity Winds Wind Gusts Pressure Precip Precip Rate Daily Precip Total
12:00 AM 58.7°F14.8°C 52.5°F11.4°C 80% Calm Calm 2.3 mph3.7 kmh 30.22 in1023.4 mb - 0.00 in0.0 mm 0.00 in0.0 mm
01:00 AM 59.4°F15.2°C 53.2°F11.8°C 80% 1.2 mph WSW1.9 kmh WSW 2.3 mph3.7 kmh 30.23 in1023.7 mb - 0.00 in0.0 mm 0.00 in0.0 mm
02:00 AM 59.1°F15.1°C 53.3°F11.8°C 81% Calm Calm 1.2 mph1.9 kmh 30.21 in1023.0 mb - 0.00 in0.0 mm 0.00 in0.0 mm
03:00 AM 58.7°F14.8°C 53.2°F11.8°C 82% 3.5 mph SW5.6 kmh SW 5.8 mph9.3 kmh 30.21 in1023.0 mb - 0.00 in0.0 mm 0.00 in0.0 mm
04:00 AM 58.3°F14.6°C 53.2°F11.8°C 83% 1.2 mph WSW1.9 kmh WSW 3.5 mph5.6 kmh 30.21 in1023.0 mb - 0.00 in0.0 mm 0.00 in0.0 mm
05:00 AM 58.2°F14.6°C 53.1°F11.7°C 83% 1.2 mph SSW1.9 kmh SSW 2.3 mph3.7 kmh 30.21 in1023.0 mb - 0.00 in0.0 mm 0.00 in0.0 mm
06:00 AM 58.4°F14.7°C 53.3°F11.8°C 83% 2.3 mph SW3.7 kmh SW 4.6 mph7.4 kmh 30.22 in1023.4 mb - 0.00 in0.0 mm 0.00 in0.0 mm
07:00 AM 58.8°F14.9°C 53.7°F12.1°C 83% 1.2 mph SW1.9 kmh SW 3.5 mph5.6 kmh 30.24 in1024.0 mb - 0.00 in0.0 mm 0.00 in0.0 mm
08:00 AM 59.5°F15.3°C 54.3°F12.4°C 83% Calm Calm 2.3 mph3.7 kmh 30.24 in1024.0 mb - 0.00 in0.0 mm 0.00 in0.0 mm
09:00 AM 63.0°F17.2°C 55.6°F13.1°C 77% 2.3 mph SSW3.7 kmh SSW 3.5 mph5.6 kmh 30.24 in1024.0 mb - 0.00 in0.0 mm 0.00 in0.0 mm
10:00 AM 64.1°F17.8°C 54.5°F12.5°C 71% 2.3 mph WSW3.7 kmh WSW 4.6 mph7.4 kmh 30.24 in1024.0 mb - 0.00 in0.0 mm 0.00 in0.0 mm
11:00 AM 66.4°F19.1°C 55.9°F13.3°C 69% 1.2 mph SW1.9 kmh SW 2.3 mph3.7 kmh 30.23 in1023.7 mb - 0.00 in0.0 mm 0.00 in0.0 mm
12:00 PM 65.9°F18.8°C 56.6°F13.7°C 72% 3.5 mph SW5.6 kmh SW 4.6 mph7.4 kmh 30.23 in1023.7 mb - 0.00 in0.0 mm 0.00 in0.0 mm
01:00 PM 66.3°F19.1°C 57.0°F13.9°C 72% 3.5 mph WNW5.6 kmh WNW 4.6 mph7.4 kmh 30.22 in1023.4 mb - 0.00 in0.0 mm 0.00 in0.0 mm
02:00 PM 67.0°F19.4°C 57.7°F14.3°C 72% 2.3 mph SW3.7 kmh SW 4.6 mph7.4 kmh 30.21 in1023.0 mb - 0.00 in0.0 mm 0.00 in0.0 mm
03:00 PM 67.1°F19.5°C 58.6°F14.8°C 74% 3.5 mph SW5.6 kmh SW 5.8 mph9.3 kmh 30.20 in1022.7 mb - 0.00 in0.0 mm 0.00 in0.0 mm
04:00 PM 66.0°F18.9°C 57.8°F14.3°C 75% 2.3 mph SW3.7 kmh SW 5.8 mph9.3 kmh 30.18 in1022.0 mb - 0.00 in0.0 mm 0.00 in0.0 mm
05:00 PM 66.5°F19.2°C 57.5°F14.2°C 73% 3.5 mph SW5.6 kmh SW 5.8 mph9.3 kmh 30.17 in1021.7 mb - 0.00 in0.0 mm 0.00 in0.0 mm
06:00 PM 65.4°F18.6°C 57.2°F14.0°C 75% 2.3 mph SW3.7 kmh SW 3.5 mph5.6 kmh 30.16 in1021.3 mb - 0.00 in0.0 mm 0.00 in0.0 mm
07:00 PM 64.0°F17.8°C 56.3°F13.5°C 76% 2.3 mph S3.7 kmh S 2.3 mph3.7 kmh 30.16 in1021.3 mb - 0.00 in0.0 mm 0.00 in0.0 mm
08:00 PM 62.3°F16.8°C 55.7°F13.2°C 79% 3.5 mph S5.6 kmh S 6.9 mph11.1 kmh 30.15 in1021.0 mb - 0.00 in0.0 mm 0.00 in0.0 mm
09:00 PM 60.5°F15.8°C 55.7°F13.2°C 84% 3.5 mph SSE5.6 kmh SSE 4.6 mph7.4 kmh 30.14 in1020.7 mb - 0.00 in0.0 mm 0.00 in0.0 mm
10:00 PM 60.2°F15.7°C 55.3°F12.9°C 84% 5.8 mph S9.3 kmh S 10.4 mph16.7 kmh 30.11 in1019.6 mb - 0.00 in0.0 mm 0.00 in0.0 mm
11:00 PM 59.5°F15.3°C 55.3°F12.9°C 86% 4.6 mph S7.4 kmh S 5.8 mph9.3 kmh 30.09 in1019.0 mb - 0.00 in0.0 mm 0.00 in0.0 mm